createdAt,value
2023-03-05T00:00:02.074Z,94.83
2023-03-05T00:01:01.958Z,94.79
2023-03-05T00:02:01.958Z,95.21
2023-03-05T00:03:01.957Z,95.15
2023-03-05T00:04:01.939Z,94.68
2023-03-05T00:05:01.918Z,95.15
2023-03-05T00:06:01.938Z,95.10
2023-03-05T00:07:01.892Z,94.83
2023-03-05T00:08:01.905Z,95.19
2023-03-05T00:09:01.902Z,94.73
2023-03-05T00:10:01.877Z,95.04
2023-03-05T00:11:01.848Z,95.15
2023-03-05T00:12:01.842Z,95.25
2023-03-05T00:13:01.832Z,95.15
2023-03-05T00:14:01.820Z,95.56
2023-03-05T00:15:01.825Z,95.36
2023-03-05T00:16:01.822Z,95.25
2023-03-05T00:17:01.797Z,95.19
2023-03-05T00:18:01.780Z,94.93
2023-03-05T00:19:01.766Z,95.04
2023-03-05T00:20:02.519Z,95.08
2023-03-05T00:21:01.759Z,95.29
2023-03-05T00:22:01.756Z,95.25
2023-03-05T00:23:01.730Z,94.73
2023-03-05T00:24:01.721Z,94.93
2023-03-05T00:25:01.711Z,94.73
2023-03-05T00:26:01.714Z,94.56
2023-03-05T00:27:01.692Z,94.51
2023-03-05T00:28:01.679Z,94.45
2023-03-05T00:29:01.659Z,95.04
2023-03-05T00:30:01.675Z,94.87
2023-03-05T00:31:01.719Z,94.62
2023-03-05T00:32:01.686Z,94.73
2023-03-05T00:33:01.618Z,95.04
2023-03-05T00:34:01.621Z,94.35
2023-03-05T00:35:01.624Z,93.62
2023-03-05T00:36:01.621Z,93.19
2023-03-05T00:37:01.591Z,93.19
2023-03-05T00:38:01.621Z,92.88
2023-03-05T00:39:01.614Z,93.30
2023-03-05T00:40:01.679Z,93.66
2023-03-05T00:41:01.550Z,93.76
2023-03-05T00:42:01.565Z,94.77
2023-03-05T00:43:01.513Z,94.71
2023-03-05T00:44:01.513Z,94.98
2023-03-05T00:45:01.494Z,93.93
2023-03-05T00:46:01.492Z,93.93
2023-03-05T00:47:01.522Z,94.14
2023-03-05T00:48:01.501Z,94.24
2023-03-05T00:49:01.463Z,94.35
2023-03-05T00:50:01.452Z,94.56
2023-03-05T00:51:01.455Z,94.04
2023-03-05T00:52:01.436Z,93.78
2023-03-05T00:53:01.475Z,94.24
2023-03-05T00:54:01.468Z,93.88
2023-03-05T00:55:01.387Z,93.68
2023-03-05T00:56:01.389Z,93.68
2023-03-05T00:57:01.369Z,93.72
2023-03-05T00:58:01.379Z,93.78
2023-03-05T00:59:01.385Z,93.88
2023-03-05T01:00:01.401Z,94.20
2023-03-05T01:01:01.333Z,94.10
2023-03-05T01:02:01.391Z,94.20
2023-03-05T01:03:01.309Z,93.84
2023-03-05T01:04:01.301Z,93.99
2023-03-05T01:05:01.386Z,93.74
2023-03-05T01:06:01.281Z,94.20
2023-03-05T01:07:01.253Z,93.95
2023-03-05T01:08:01.243Z,93.53
2023-03-05T01:09:01.226Z,93.99
2023-03-05T01:10:01.241Z,93.68
2023-03-05T01:11:01.241Z,93.95
2023-03-05T01:12:01.215Z,93.63
2023-03-05T01:13:01.182Z,93.95
2023-03-05T01:14:01.174Z,94.06
2023-03-05T01:15:01.168Z,93.95
2023-03-05T01:16:01.206Z,93.26
2023-03-05T01:17:01.173Z,93.84
2023-03-05T01:18:01.146Z,93.95
2023-03-05T01:19:01.119Z,93.57
2023-03-05T01:20:01.106Z,93.36
2023-03-05T01:21:01.143Z,93.47
2023-03-05T01:22:01.086Z,93.05
2023-03-05T01:23:01.114Z,91.85
2023-03-05T01:24:01.063Z,92.63
2023-03-05T01:25:01.057Z,91.47
2023-03-05T01:26:01.079Z,90.28
2023-03-05T01:27:01.045Z,90.64
2023-03-05T01:28:01.026Z,90.64
2023-03-05T01:29:01.061Z,91.47
2023-03-05T01:30:00.993Z,91.52
2023-03-05T01:31:01.001Z,92.52
2023-03-05T01:32:01.042Z,93.15
2023-03-05T01:33:00.984Z,92.80
2023-03-05T01:34:00.970Z,92.63
2023-03-05T01:35:00.995Z,91.89
2023-03-05T01:36:00.928Z,91.89
2023-03-05T01:37:00.924Z,91.58
2023-03-05T01:38:00.914Z,92.32
2023-03-05T01:39:00.913Z,92.90
2023-03-05T01:40:00.884Z,92.00
2023-03-05T01:41:00.905Z,92.27
2023-03-05T01:42:00.899Z,92.27
2023-03-05T01:43:00.855Z,91.85
2023-03-05T01:44:00.857Z,90.64
2023-03-05T01:45:00.842Z,90.11
2023-03-05T01:46:00.853Z,90.32
2023-03-05T01:47:00.854Z,90.67
2023-03-05T01:48:00.810Z,90.36
2023-03-05T01:49:00.791Z,90.47
2023-03-05T01:50:00.797Z,90.36
2023-03-05T01:51:00.770Z,88.79
2023-03-05T01:52:00.756Z,89.42
2023-03-05T01:53:00.788Z,89.00
2023-03-05T01:54:00.734Z,89.10
2023-03-05T01:55:00.737Z,88.89
2023-03-05T01:56:00.710Z,89.84
2023-03-05T01:57:00.709Z,90.11
2023-03-05T01:58:00.740Z,89.42
2023-03-05T01:59:00.734Z,88.75
2023-03-05T02:00:00.681Z,89.73
2023-03-05T02:01:00.688Z,90.42
2023-03-05T02:02:00.657Z,89.54
2023-03-05T02:03:00.644Z,89.90
2023-03-05T02:04:00.666Z,89.97
2023-03-05T02:05:00.680Z,89.59
2023-03-05T02:06:00.612Z,90.00
2023-03-05T02:07:00.599Z,90.28
2023-03-05T02:08:00.588Z,90.59
2023-03-05T02:09:00.591Z,91.12
2023-03-05T02:10:00.573Z,88.39
2023-03-05T02:11:00.620Z,87.03
2023-03-05T02:12:00.546Z,86.88
2023-03-05T02:13:00.551Z,86.71
2023-03-05T02:14:00.543Z,86.19
2023-03-05T02:15:00.516Z,86.61
2023-03-05T02:16:00.535Z,86.51
2023-03-05T02:17:00.534Z,86.46
2023-03-05T02:18:00.481Z,86.19
2023-03-05T02:19:00.501Z,87.20
2023-03-05T02:20:00.463Z,87.83
2023-03-05T02:21:00.463Z,87.45
2023-03-05T02:22:00.453Z,85.56
2023-03-05T02:23:00.471Z,86.82
2023-03-05T02:24:00.424Z,86.51
2023-03-05T02:25:00.430Z,86.51
2023-03-05T02:26:00.399Z,85.46
2023-03-05T02:27:00.391Z,85.77
2023-03-05T02:28:00.383Z,85.03
2023-03-05T02:29:00.410Z,85.98
2023-03-05T02:30:00.380Z,86.61
2023-03-05T02:31:00.361Z,86.82
2023-03-05T02:32:00.480Z,87.76
2023-03-05T02:33:00.340Z,87.20
2023-03-05T02:34:00.336Z,87.41
2023-03-05T02:35:00.371Z,88.14
2023-03-05T02:36:00.336Z,87.13
2023-03-05T02:37:00.284Z,86.51
2023-03-05T02:38:00.279Z,87.24
2023-03-05T02:39:00.279Z,86.88
2023-03-05T02:40:00.255Z,87.66
2023-03-05T02:41:00.278Z,87.62
2023-03-05T02:42:00.238Z,88.24
2023-03-05T02:43:00.228Z,87.72
2023-03-05T02:44:00.208Z,88.04
2023-03-05T02:45:00.214Z,87.66
2023-03-05T02:46:00.307Z,86.46
2023-03-05T02:47:00.227Z,87.20
2023-03-05T02:48:00.169Z,88.24
2023-03-05T02:49:00.160Z,87.09
2023-03-05T02:50:00.161Z,86.46
2023-03-05T02:51:00.173Z,86.36
2023-03-05T02:52:00.144Z,86.29
2023-03-05T02:53:00.174Z,86.71
2023-03-05T02:54:00.121Z,87.76
2023-03-05T02:55:00.120Z,87.72
2023-03-05T02:56:00.118Z,87.13
2023-03-05T02:57:00.126Z,86.19
2023-03-05T02:58:00.077Z,86.36
2023-03-05T02:59:00.117Z,85.66
2023-03-05T03:00:00.158Z,87.03
2023-03-05T03:01:00.139Z,86.08
2023-03-05T03:02:00.057Z,85.98
2023-03-05T03:03:00.150Z,85.66
2023-03-05T03:04:00.036Z,85.56
2023-03-05T03:05:00.035Z,86.15
2023-03-05T03:05:59.981Z,87.09
2023-03-05T03:06:59.980Z,86.82
2023-03-05T03:07:59.976Z,87.97
2023-03-05T03:08:59.955Z,86.51
2023-03-05T03:09:59.937Z,85.66
2023-03-05T03:10:59.985Z,85.56
2023-03-05T03:11:59.917Z,86.19
2023-03-05T03:12:59.908Z,86.19
2023-03-05T03:13:59.916Z,86.08
2023-03-05T03:14:59.889Z,86.29
2023-03-05T03:15:59.874Z,86.82
2023-03-05T03:16:59.931Z,86.40
2023-03-05T03:17:59.871Z,86.08
2023-03-05T03:18:59.850Z,86.29
2023-03-05T03:19:59.843Z,85.98
2023-03-05T03:20:59.830Z,86.71
2023-03-05T03:21:59.812Z,86.23
2023-03-05T03:22:59.856Z,86.76
2023-03-05T03:23:59.792Z,86.76
2023-03-05T03:24:59.785Z,86.76
2023-03-05T03:25:59.771Z,87.07
2023-03-05T03:26:59.762Z,86.92
2023-03-05T03:27:59.764Z,86.86
2023-03-05T03:28:59.799Z,86.44
2023-03-05T03:29:59.726Z,86.96
2023-03-05T03:30:59.773Z,86.92
2023-03-05T03:31:59.759Z,86.65
2023-03-05T03:32:59.695Z,86.33
2023-03-05T03:33:59.713Z,85.60
2023-03-05T03:34:59.710Z,86.23
2023-03-05T03:35:59.721Z,86.96
2023-03-05T03:36:59.685Z,86.44
2023-03-05T03:37:59.638Z,85.60
2023-03-05T03:38:59.643Z,85.22
2023-03-05T03:39:59.631Z,85.53
2023-03-05T03:40:59.657Z,85.11
2023-03-05T03:41:59.607Z,84.94
2023-03-05T03:42:59.586Z,85.08
2023-03-05T03:43:59.583Z,85.08
2023-03-05T03:44:59.569Z,85.25
2023-03-05T03:45:59.662Z,84.77
2023-03-05T03:46:59.585Z,85.08
2023-03-05T03:47:59.543Z,85.30
2023-03-05T03:48:59.537Z,85.50
2023-03-05T03:49:59.535Z,85.72
2023-03-05T03:50:59.507Z,85.82
2023-03-05T03:51:59.493Z,86.10
2023-03-05T03:52:59.519Z,86.35
2023-03-05T03:53:59.481Z,87.88
2023-03-05T03:54:59.472Z,88.51
2023-03-05T03:55:59.447Z,88.13
2023-03-05T03:56:59.444Z,88.41
2023-03-05T03:57:59.429Z,88.45
2023-03-05T03:58:59.462Z,88.09
2023-03-05T03:59:59.420Z,87.25
2023-03-05T04:00:59.398Z,87.19
2023-03-05T04:01:59.390Z,86.45
2023-03-05T04:02:59.380Z,86.35
2023-03-05T04:03:59.399Z,86.62
2023-03-05T04:04:59.403Z,86.94
2023-03-05T04:05:59.377Z,86.87
2023-03-05T04:06:59.339Z,86.55
2023-03-05T04:07:59.324Z,88.02
2023-03-05T04:08:59.316Z,88.13
2023-03-05T04:09:59.303Z,88.45
2023-03-05T04:10:59.350Z,87.40
2023-03-05T04:11:59.307Z,87.25
2023-03-05T04:12:59.277Z,87.71
2023-03-05T04:13:59.261Z,87.08
2023-03-05T04:14:59.256Z,87.71
2023-03-05T04:15:59.329Z,87.82
2023-03-05T04:16:59.302Z,87.40
2023-03-05T04:17:59.222Z,87.40
2023-03-05T04:18:59.222Z,88.49
2023-03-05T04:19:59.201Z,88.02
2023-03-05T04:20:59.191Z,88.38
2023-03-05T04:21:59.235Z,87.85
2023-03-05T04:22:59.233Z,88.38
2023-03-05T04:23:59.157Z,88.49
2023-03-05T04:24:59.157Z,88.07
2023-03-05T04:25:59.138Z,87.75
2023-03-05T04:26:59.127Z,88.00
2023-03-05T04:27:59.122Z,87.85
2023-03-05T04:28:59.157Z,87.96
2023-03-05T04:29:59.098Z,87.96
2023-03-05T04:30:59.260Z,88.07
2023-03-05T04:31:59.113Z,88.00
2023-03-05T04:32:59.063Z,88.07
2023-03-05T04:33:59.058Z,88.49
2023-03-05T04:34:59.095Z,88.21
2023-03-05T04:35:59.047Z,89.37
2023-03-05T04:36:59.017Z,88.42
2023-03-05T04:37:59.029Z,88.74
2023-03-05T04:38:58.999Z,88.53
2023-03-05T04:39:58.992Z,88.63
2023-03-05T04:40:59.008Z,88.53
2023-03-05T04:41:58.962Z,88.63
2023-03-05T04:42:58.949Z,88.42
2023-03-05T04:43:58.942Z,88.84
2023-03-05T04:44:58.944Z,88.74
2023-03-05T04:45:58.923Z,88.63
2023-03-05T04:46:58.974Z,89.05
2023-03-05T04:47:58.893Z,88.99
2023-03-05T04:48:58.891Z,89.09
2023-03-05T04:49:58.871Z,88.10
2023-03-05T04:50:58.885Z,88.67
2023-03-05T04:51:58.850Z,88.63
2023-03-05T04:52:58.874Z,88.67
2023-03-05T04:53:58.854Z,88.10
2023-03-05T04:54:58.820Z,89.09
2023-03-05T04:55:58.815Z,88.67
2023-03-05T04:56:58.808Z,88.89
2023-03-05T04:57:58.786Z,88.99
2023-03-05T04:58:58.827Z,88.99
2023-03-05T04:59:58.763Z,89.66
2023-03-05T05:00:58.755Z,89.72
2023-03-05T05:01:58.814Z,90.40
2023-03-05T05:02:58.805Z,90.29
2023-03-05T05:03:58.720Z,89.98
2023-03-05T05:04:58.771Z,89.87
2023-03-05T05:05:58.707Z,89.91
2023-03-05T05:06:58.714Z,90.33
2023-03-05T05:07:58.723Z,90.23
2023-03-05T05:08:58.694Z,90.23
2023-03-05T05:09:58.675Z,90.06
2023-03-05T05:10:58.710Z,90.55
2023-03-05T05:11:58.647Z,90.90
2023-03-05T05:12:58.629Z,90.80
2023-03-05T05:13:58.642Z,90.58
2023-03-05T05:14:58.618Z,90.48
2023-03-05T05:15:58.640Z,91.15
2023-03-05T05:16:58.631Z,91.47
2023-03-05T05:17:58.571Z,91.89
2023-03-05T05:18:58.614Z,90.83
2023-03-05T05:19:58.577Z,91.05
2023-03-05T05:20:58.548Z,92.31
2023-03-05T05:21:58.537Z,91.78
2023-03-05T05:22:58.559Z,91.89
2023-03-05T05:23:58.506Z,92.27
2023-03-05T05:24:58.502Z,92.38
2023-03-05T05:25:58.514Z,91.96
2023-03-05T05:26:58.490Z,92.27
2023-03-05T05:27:58.463Z,91.85
2023-03-05T05:28:58.508Z,91.96
2023-03-05T05:29:58.463Z,92.23
2023-03-05T05:30:58.452Z,91.70
2023-03-05T05:31:58.485Z,91.42
2023-03-05T05:32:58.418Z,91.11
2023-03-05T05:33:58.402Z,91.42
2023-03-05T05:34:58.455Z,91.74
2023-03-05T05:35:58.445Z,91.47
2023-03-05T05:36:58.371Z,91.96
2023-03-05T05:37:58.386Z,91.78
2023-03-05T05:38:58.363Z,91.78
2023-03-05T05:39:58.338Z,92.06
2023-03-05T05:40:58.341Z,91.11
2023-03-05T05:41:58.389Z,91.74
2023-03-05T05:42:58.310Z,91.85
2023-03-05T05:43:58.306Z,90.90
2023-03-05T05:44:58.295Z,91.74
2023-03-05T05:45:58.372Z,91.53
2023-03-05T05:46:58.277Z,91.22
2023-03-05T05:47:58.261Z,91.96
2023-03-05T05:48:58.246Z,92.16
2023-03-05T05:49:58.254Z,91.53
2023-03-05T05:50:58.232Z,91.28
2023-03-05T05:51:58.227Z,91.42
2023-03-05T05:52:58.228Z,91.64
2023-03-05T05:53:58.201Z,91.96
2023-03-05T05:54:58.187Z,91.53
2023-03-05T05:55:58.186Z,91.64
2023-03-05T05:56:58.165Z,91.64
2023-03-05T05:57:58.185Z,91.74
2023-03-05T05:58:58.138Z,91.53
2023-03-05T05:59:58.143Z,91.60
2023-03-05T06:00:58.133Z,91.00
2023-03-05T06:01:58.147Z,91.22
2023-03-05T06:02:58.198Z,91.64
2023-03-05T06:03:58.090Z,91.64
2023-03-05T06:04:58.397Z,91.42
2023-03-05T06:05:58.079Z,91.85
2023-03-05T06:06:58.090Z,91.28
2023-03-05T06:07:58.043Z,90.69
2023-03-05T06:08:58.035Z,90.90
2023-03-05T06:09:58.026Z,90.37
2023-03-05T06:10:58.010Z,90.16
2023-03-05T06:11:58.031Z,90.26
2023-03-05T06:12:57.986Z,89.70
2023-03-05T06:13:58.002Z,89.76
2023-03-05T06:14:57.964Z,89.98
2023-03-05T06:15:57.961Z,90.33
2023-03-05T06:16:57.945Z,91.17
2023-03-05T06:17:57.960Z,90.97
2023-03-05T06:18:57.922Z,90.97
2023-03-05T06:19:57.914Z,91.03
2023-03-05T06:20:57.909Z,90.75
2023-03-05T06:21:57.894Z,90.50
2023-03-05T06:22:57.880Z,90.29
2023-03-05T06:23:57.901Z,90.75
2023-03-05T06:24:57.862Z,90.29
2023-03-05T06:25:57.850Z,90.50
2023-03-05T06:26:57.841Z,90.40
2023-03-05T06:27:57.828Z,90.55
2023-03-05T06:28:57.813Z,90.61
2023-03-05T06:29:57.843Z,90.71
2023-03-05T06:30:57.845Z,90.19
2023-03-05T06:31:57.851Z,89.66
2023-03-05T06:32:57.775Z,90.29
2023-03-05T06:33:57.775Z,89.94
2023-03-05T06:34:57.765Z,90.56
2023-03-05T06:35:57.850Z,90.61
2023-03-05T06:36:57.734Z,90.67
2023-03-05T06:37:57.720Z,90.19
2023-03-05T06:38:57.709Z,89.30
2023-03-05T06:39:57.699Z,89.66
2023-03-05T06:40:57.697Z,89.94
2023-03-05T06:41:57.697Z,89.24
2023-03-05T06:42:57.672Z,89.66
2023-03-05T06:43:57.658Z,88.99
2023-03-05T06:44:57.654Z,88.78
2023-03-05T06:45:57.677Z,88.57
2023-03-05T06:46:57.632Z,89.41
2023-03-05T06:47:57.625Z,89.14
2023-03-05T06:48:57.604Z,89.03
2023-03-05T06:49:57.593Z,88.89
2023-03-05T06:50:57.578Z,88.99
2023-03-05T06:51:57.572Z,89.24
2023-03-05T06:52:57.575Z,89.03
2023-03-05T06:53:57.556Z,90.19
2023-03-05T06:54:57.538Z,90.61
2023-03-05T06:55:58.540Z,90.44
2023-03-05T06:56:57.533Z,89.87
2023-03-05T06:57:57.507Z,90.23
2023-03-05T06:58:57.507Z,89.87
2023-03-05T06:59:57.495Z,88.92
2023-03-05T07:00:57.527Z,89.34
2023-03-05T07:01:57.485Z,88.92
2023-03-05T07:02:57.453Z,88.33
2023-03-05T07:03:57.443Z,88.40
2023-03-05T07:04:57.441Z,87.55
2023-03-05T07:05:57.423Z,87.76
2023-03-05T07:06:57.434Z,88.50
2023-03-05T07:07:57.405Z,88.40
2023-03-05T07:08:57.389Z,88.71
2023-03-05T07:09:57.380Z,87.98
2023-03-05T07:10:57.371Z,87.20
2023-03-05T07:11:57.369Z,87.76
2023-03-05T07:12:57.352Z,87.60
2023-03-05T07:13:57.337Z,87.55
2023-03-05T07:14:57.325Z,87.35
2023-03-05T07:15:57.400Z,87.45
2023-03-05T07:16:57.299Z,86.46
2023-03-05T07:17:57.346Z,85.75
2023-03-05T07:18:57.300Z,83.54
2023-03-05T07:19:57.272Z,81.64
2023-03-05T07:20:57.260Z,79.93
2023-03-05T07:21:57.258Z,79.54
2023-03-05T07:22:57.241Z,78.32
2023-03-05T07:23:57.243Z,77.03
2023-03-05T07:24:57.223Z,77.66
2023-03-05T07:25:57.218Z,76.44
2023-03-05T07:26:57.196Z,76.54
2023-03-05T07:27:57.189Z,76.72
2023-03-05T07:28:57.174Z,77.45
2023-03-05T07:29:57.189Z,75.60
2023-03-05T07:30:57.175Z,76.33
2023-03-05T07:31:57.164Z,74.27
2023-03-05T07:32:57.130Z,74.76
2023-03-05T07:33:57.144Z,74.42
2023-03-05T07:34:57.106Z,73.24
2023-03-05T07:35:57.197Z,72.96
2023-03-05T07:36:57.090Z,73.93
2023-03-05T07:37:57.090Z,74.11
2023-03-05T07:38:57.110Z,72.47
2023-03-05T07:39:57.088Z,72.78
2023-03-05T07:40:57.056Z,71.49
2023-03-05T07:41:57.039Z,73.27
2023-03-05T07:42:57.064Z,71.70
2023-03-05T07:43:57.047Z,72.89
2023-03-05T07:44:57.007Z,72.36
2023-03-05T07:45:57.088Z,73.10
2023-03-05T07:46:56.980Z,71.25
2023-03-05T07:47:57.006Z,72.61
2023-03-05T07:48:56.976Z,71.28
2023-03-05T07:49:56.983Z,71.91
2023-03-05T07:50:56.999Z,73.30
2023-03-05T07:51:56.931Z,71.36
2023-03-05T07:52:56.911Z,70.62
2023-03-05T07:53:57.008Z,70.94
2023-03-05T07:54:56.894Z,69.89
2023-03-05T07:55:56.943Z,70.28
2023-03-05T07:56:56.882Z,69.96
2023-03-05T07:57:56.872Z,69.79
2023-03-05T07:58:56.853Z,71.70
2023-03-05T07:59:56.895Z,71.39
2023-03-05T08:00:56.832Z,70.11
2023-03-05T08:01:56.830Z,70.84
2023-03-05T08:02:56.808Z,70.45
2023-03-05T08:03:56.846Z,70.04
2023-03-05T08:04:56.798Z,71.39
2023-03-05T08:05:56.821Z,70.76
2023-03-05T08:06:56.808Z,69.51
2023-03-05T08:07:56.770Z,71.04
2023-03-05T08:08:56.755Z,70.84
2023-03-05T08:09:56.735Z,69.69
2023-03-05T08:10:56.726Z,68.96
2023-03-05T08:11:56.781Z,69.24
2023-03-05T08:12:56.700Z,69.13
2023-03-05T08:13:56.691Z,68.13
2023-03-05T08:14:56.678Z,70.35
2023-03-05T08:15:56.724Z,70.73
2023-03-05T08:16:56.656Z,70.15
2023-03-05T08:17:56.718Z,69.42
2023-03-05T08:18:56.652Z,70.64
2023-03-05T08:19:56.628Z,69.81
2023-03-05T08:20:56.613Z,69.18
2023-03-05T08:21:56.628Z,69.18
2023-03-05T08:22:56.601Z,70.09
2023-03-05T08:23:56.623Z,69.46
2023-03-05T08:24:56.581Z,68.91
2023-03-05T08:25:56.590Z,70.06
2023-03-05T08:26:56.547Z,67.95
2023-03-05T08:27:56.539Z,65.55
2023-03-05T08:28:56.539Z,67.45
2023-03-05T08:29:56.537Z,68.66
2023-03-05T08:30:56.586Z,68.22
2023-03-05T08:31:56.508Z,67.36
2023-03-05T08:32:56.484Z,66.97
2023-03-05T08:33:56.474Z,67.05
2023-03-05T08:34:56.463Z,66.11
2023-03-05T08:35:56.532Z,67.74
2023-03-05T08:36:56.440Z,66.77
2023-03-05T08:37:56.464Z,67.15
2023-03-05T08:38:56.419Z,66.97
2023-03-05T08:39:56.409Z,66.83
2023-03-05T08:40:56.401Z,67.66
2023-03-05T08:41:56.443Z,69.19
2023-03-05T08:42:56.388Z,69.19
2023-03-05T08:43:56.374Z,68.88
2023-03-05T08:44:56.357Z,69.29
2023-03-05T08:45:56.346Z,67.45
2023-03-05T08:46:56.436Z,68.28
2023-03-05T08:47:56.376Z,69.53
2023-03-05T08:48:56.331Z,68.46
2023-03-05T08:49:56.309Z,67.94
2023-03-05T08:50:56.299Z,68.91
2023-03-05T08:51:56.310Z,69.53
2023-03-05T08:52:56.268Z,69.01
2023-03-05T08:53:56.303Z,69.64
2023-03-05T08:54:56.302Z,69.43
2023-03-05T08:55:56.244Z,69.22
2023-03-05T08:56:56.224Z,69.12
2023-03-05T08:57:56.217Z,69.12
2023-03-05T08:58:56.251Z,69.01
2023-03-05T08:59:56.233Z,69.29
2023-03-05T09:00:56.182Z,69.29
2023-03-05T09:01:56.352Z,69.19
2023-03-05T09:02:56.207Z,68.32
2023-03-05T09:03:56.157Z,68.40
2023-03-05T09:04:56.152Z,69.02
2023-03-05T09:05:56.189Z,67.50
2023-03-05T09:06:56.115Z,67.22
2023-03-05T09:07:56.112Z,69.48
2023-03-05T09:08:56.109Z,67.15
2023-03-05T09:09:56.110Z,68.60
2023-03-05T09:10:56.073Z,69.61
2023-03-05T09:11:56.099Z,69.43
2023-03-05T09:12:56.053Z,68.81
2023-03-05T09:13:56.044Z,69.17
2023-03-05T09:14:56.042Z,68.78
2023-03-05T09:15:56.068Z,67.82
2023-03-05T09:16:56.017Z,67.74
2023-03-05T09:17:56.028Z,68.54
2023-03-05T09:18:55.985Z,68.65
2023-03-05T09:19:55.977Z,68.54
2023-03-05T09:20:55.981Z,68.72
2023-03-05T09:21:57.084Z,66.85
2023-03-05T09:22:55.945Z,67.77
2023-03-05T09:23:55.962Z,69.50
2023-03-05T09:24:55.921Z,70.09
2023-03-05T09:25:55.929Z,69.33
2023-03-05T09:26:55.926Z,69.45
2023-03-05T09:27:55.892Z,68.27
2023-03-05T09:28:55.876Z,68.59
2023-03-05T09:29:55.895Z,66.30
2023-03-05T09:30:55.863Z,67.10
2023-03-05T09:31:55.923Z,67.76
2023-03-05T09:32:55.851Z,64.94
2023-03-05T09:33:55.827Z,65.20
2023-03-05T09:34:55.816Z,65.86
2023-03-05T09:35:55.873Z,65.62
2023-03-05T09:36:55.809Z,64.65
2023-03-05T09:37:55.780Z,65.38
2023-03-05T09:38:55.788Z,65.45
2023-03-05T09:39:55.757Z,64.65
2023-03-05T09:40:55.747Z,64.45
2023-03-05T09:41:55.771Z,64.89
2023-03-05T09:42:55.722Z,65.90
2023-03-05T09:43:55.712Z,67.35
2023-03-05T09:44:55.721Z,66.62
2023-03-05T09:45:55.713Z,64.97
2023-03-05T09:46:55.677Z,65.93
2023-03-05T09:47:55.704Z,67.14
2023-03-05T09:48:55.656Z,65.59
2023-03-05T09:49:55.653Z,65.22
2023-03-05T09:50:55.652Z,65.19
2023-03-05T09:51:55.626Z,64.67
2023-03-05T09:52:55.620Z,63.76
2023-03-05T09:53:55.647Z,64.39
2023-03-05T09:54:55.598Z,64.11
2023-03-05T09:55:55.597Z,65.28
2023-03-05T09:56:55.571Z,65.11
2023-03-05T09:57:55.586Z,64.48
2023-03-05T09:58:56.287Z,66.80
2023-03-05T09:59:55.748Z,65.20
2023-03-05T10:00:55.529Z,66.03
2023-03-05T10:01:55.529Z,64.65
2023-03-05T10:02:55.589Z,65.56
2023-03-05T10:03:55.529Z,65.32
2023-03-05T10:04:55.488Z,63.90
2023-03-05T10:05:55.499Z,63.41
2023-03-05T10:06:55.486Z,63.41
2023-03-05T10:07:55.449Z,64.52
2023-03-05T10:08:55.445Z,64.84
2023-03-05T10:09:55.432Z,62.95
2023-03-05T10:10:55.422Z,62.18
2023-03-05T10:11:55.440Z,62.52
2023-03-05T10:12:55.411Z,62.39
2023-03-05T10:13:55.426Z,62.73
2023-03-05T10:14:55.381Z,63.40
2023-03-05T10:15:55.365Z,63.44
2023-03-05T10:16:55.463Z,59.85
2023-03-05T10:17:55.423Z,62.34
2023-03-05T10:18:55.339Z,62.16
2023-03-05T10:19:55.320Z,63.22
2023-03-05T10:20:55.316Z,63.19
2023-03-05T10:21:55.302Z,61.10
2023-03-05T10:22:55.295Z,61.05
2023-03-05T10:23:55.329Z,61.57
2023-03-05T10:24:55.270Z,63.93
2023-03-05T10:25:55.254Z,63.84
2023-03-05T10:26:55.326Z,62.54
2023-03-05T10:27:55.255Z,60.94
2023-03-05T10:28:55.228Z,61.36
2023-03-05T10:29:55.239Z,62.46
2023-03-05T10:30:55.208Z,59.75
2023-03-05T10:31:55.239Z,59.42
2023-03-05T10:32:55.184Z,61.59
2023-03-05T10:33:55.185Z,60.40
2023-03-05T10:34:55.166Z,59.36
2023-03-05T10:35:55.224Z,60.37
2023-03-05T10:36:57.193Z,59.62
2023-03-05T10:37:55.127Z,60.27
2023-03-05T10:38:55.119Z,60.60
2023-03-05T10:39:55.114Z,60.71
2023-03-05T10:40:55.096Z,62.30
2023-03-05T10:41:55.118Z,61.87
2023-03-05T10:42:55.080Z,61.70
2023-03-05T10:43:55.069Z,58.87
2023-03-05T10:44:55.053Z,59.49
2023-03-05T10:45:55.221Z,60.42
2023-03-05T10:46:56.019Z,59.77
2023-03-05T10:47:55.051Z,59.41
2023-03-05T10:48:55.024Z,59.49
2023-03-05T10:49:55.025Z,59.39
2023-03-05T10:50:54.988Z,58.94
2023-03-05T10:51:54.995Z,57.76
2023-03-05T10:52:54.963Z,59.20
2023-03-05T10:53:54.985Z,58.95
2023-03-05T10:54:54.958Z,59.57
2023-03-05T10:55:54.940Z,60.32
2023-03-05T10:56:54.919Z,59.78
2023-03-05T10:57:54.912Z,59.91
2023-03-05T10:58:54.900Z,59.88
2023-03-05T10:59:54.902Z,60.65
2023-03-05T11:00:54.929Z,60.42
2023-03-05T11:01:54.884Z,59.02
2023-03-05T11:02:54.914Z,59.53
2023-03-05T11:03:54.842Z,57.60
2023-03-05T11:04:54.855Z,57.34
2023-03-05T11:05:54.850Z,56.16
2023-03-05T11:06:54.803Z,58.53
2023-03-05T11:07:54.797Z,59.46
2023-03-05T11:08:54.784Z,60.44
2023-03-05T11:09:54.772Z,60.17
2023-03-05T11:10:54.769Z,58.11
2023-03-05T11:11:54.786Z,57.65
2023-03-05T11:12:54.738Z,57.81
2023-03-05T11:13:54.734Z,58.94
2023-03-05T11:14:54.718Z,58.74
2023-03-05T11:15:54.729Z,58.33
2023-03-05T11:16:54.719Z,58.56
2023-03-05T11:17:54.715Z,59.05
2023-03-05T11:18:54.671Z,59.09
2023-03-05T11:19:54.660Z,59.14
2023-03-05T11:20:54.649Z,58.11
2023-03-05T11:21:54.640Z,57.26
2023-03-05T11:22:54.635Z,56.39
2023-03-05T11:23:54.643Z,56.77
2023-03-05T11:24:54.605Z,58.76
2023-03-05T11:25:54.611Z,58.11
2023-03-05T11:26:54.595Z,57.57
2023-03-05T11:27:54.964Z,56.83
2023-03-05T11:28:54.563Z,57.52
2023-03-05T11:29:54.568Z,58.09
2023-03-05T11:30:54.567Z,56.46
2023-03-05T11:31:54.556Z,56.46
2023-03-05T11:32:54.546Z,56.26
2023-03-05T11:33:54.541Z,56.57
2023-03-05T11:34:54.493Z,57.52
2023-03-05T11:35:54.545Z,57.29
2023-03-05T11:36:54.479Z,56.31
2023-03-05T11:37:54.486Z,56.21
2023-03-05T11:38:54.467Z,55.93
2023-03-05T11:39:54.441Z,55.23
2023-03-05T11:40:54.430Z,55.49
2023-03-05T11:41:54.514Z,57.11
2023-03-05T11:42:54.414Z,57.03
2023-03-05T11:43:54.404Z,56.00
2023-03-05T11:44:54.397Z,57.42
2023-03-05T11:45:54.417Z,54.94
2023-03-05T11:46:54.376Z,54.66
2023-03-05T11:47:54.389Z,54.97
2023-03-05T11:48:54.359Z,53.76
2023-03-05T11:49:54.370Z,54.90
2023-03-05T11:50:54.322Z,54.85
2023-03-05T11:51:54.312Z,52.29
2023-03-05T11:52:54.300Z,52.98
2023-03-05T11:53:54.309Z,53.91
2023-03-05T11:54:54.277Z,54.64
2023-03-05T11:55:54.283Z,53.69
2023-03-05T11:56:54.264Z,54.02
2023-03-05T11:57:54.250Z,53.63
2023-03-05T11:58:54.236Z,53.02
2023-03-05T11:59:54.245Z,53.43
2023-03-05T12:00:54.235Z,53.84
2023-03-05T12:01:54.206Z,52.86
2023-03-05T12:02:54.209Z,54.56
2023-03-05T12:03:54.230Z,50.96
2023-03-05T12:04:54.178Z,53.30
2023-03-05T12:05:54.208Z,50.62
2023-03-05T12:06:54.162Z,50.26
2023-03-05T12:07:54.146Z,53.02
2023-03-05T12:08:54.129Z,51.37
2023-03-05T12:09:54.203Z,52.01
2023-03-05T12:10:54.109Z,52.50
2023-03-05T12:11:54.179Z,52.48
2023-03-05T12:12:54.104Z,49.85
2023-03-05T12:13:54.078Z,50.28
2023-03-05T12:14:54.065Z,49.44
2023-03-05T12:15:54.082Z,51.42
2023-03-05T12:16:54.046Z,50.80
2023-03-05T12:17:54.056Z,50.51
2023-03-05T12:18:54.019Z,51.73
2023-03-05T12:19:54.012Z,51.73
2023-03-05T12:20:54.070Z,52.34
2023-03-05T12:21:54.025Z,52.94
2023-03-05T12:22:53.979Z,50.85
2023-03-05T12:23:53.994Z,50.03
2023-03-05T12:24:53.956Z,51.45
2023-03-05T12:25:53.950Z,50.60
2023-03-05T12:26:53.933Z,50.21
2023-03-05T12:27:53.939Z,49.82
2023-03-05T12:28:53.913Z,49.23
2023-03-05T12:29:53.926Z,49.39
2023-03-05T12:30:53.890Z,49.60
2023-03-05T12:31:53.890Z,49.47
2023-03-05T12:32:53.891Z,48.18
2023-03-05T12:33:53.862Z,49.21
2023-03-05T12:34:53.846Z,48.07
2023-03-05T12:35:53.877Z,47.66
2023-03-05T12:36:53.825Z,46.12
2023-03-05T12:37:53.836Z,45.75
2023-03-05T12:38:53.850Z,46.55
2023-03-05T12:39:53.795Z,45.68
2023-03-05T12:40:53.779Z,43.26
2023-03-05T12:41:53.774Z,44.24
2023-03-05T12:42:53.799Z,43.42
2023-03-05T12:43:53.754Z,41.98
2023-03-05T12:44:53.769Z,42.29
2023-03-05T12:45:53.739Z,44.24
2023-03-05T12:46:53.760Z,45.25
2023-03-05T12:47:53.708Z,45.85
2023-03-05T12:48:53.770Z,44.80
2023-03-05T12:49:53.686Z,43.91
2023-03-05T12:50:53.684Z,44.00
2023-03-05T12:51:53.701Z,42.68